sensor_id;sensor_type;location;lat;lon;timestamp;P1;durP1;ratioP1;P2;durP2;ratioP2
21697;SDS011;11010;49.548;11.926;2022-09-13T00:00:52;9.20;;;2.65;;
21697;SDS011;11010;49.548;11.926;2022-09-13T00:03:19;7.10;;;2.60;;
21697;SDS011;11010;49.548;11.926;2022-09-13T00:05:47;8.15;;;2.67;;
21697;SDS011;11010;49.548;11.926;2022-09-13T00:08:15;9.95;;;3.22;;
21697;SDS011;11010;49.548;11.926;2022-09-13T00:10:43;11.27;;;2.83;;
21697;SDS011;11010;49.548;11.926;2022-09-13T00:13:11;8.15;;;2.85;;
21697;SDS011;11010;49.548;11.926;2022-09-13T00:15:46;7.20;;;2.40;;
21697;SDS011;11010;49.548;11.926;2022-09-13T00:18:14;8.02;;;2.58;;
21697;SDS011;11010;49.548;11.926;2022-09-13T00:20:42;8.10;;;2.50;;
21697;SDS011;11010;49.548;11.926;2022-09-13T00:23:10;7.43;;;2.67;;
21697;SDS011;11010;49.548;11.926;2022-09-13T00:25:38;9.23;;;2.60;;
21697;SDS011;11010;49.548;11.926;2022-09-13T00:28:06;7.15;;;2.28;;
21697;SDS011;11010;49.548;11.926;2022-09-13T00:30:33;9.13;;;2.80;;
21697;SDS011;11010;49.548;11.926;2022-09-13T00:33:01;7.32;;;2.38;;
21697;SDS011;11010;49.548;11.926;2022-09-13T00:35:30;8.57;;;2.70;;
21697;SDS011;11010;49.548;11.926;2022-09-13T00:37:58;7.15;;;2.63;;
21697;SDS011;11010;49.548;11.926;2022-09-13T00:40:26;7.93;;;2.57;;
21697;SDS011;11010;49.548;11.926;2022-09-13T00:42:56;9.70;;;2.80;;
21697;SDS011;11010;49.548;11.926;2022-09-13T00:45:23;7.90;;;2.40;;
21697;SDS011;11010;49.548;11.926;2022-09-13T00:48:03;7.53;;;2.60;;
21697;SDS011;11010;49.548;11.926;2022-09-13T00:50:36;8.60;;;2.67;;
21697;SDS011;11010;49.548;11.926;2022-09-13T00:53:09;7.60;;;2.58;;
21697;SDS011;11010;49.548;11.926;2022-09-13T00:58:24;7.40;;;2.60;;
21697;SDS011;11010;49.548;11.926;2022-09-13T01:00:53;8.57;;;2.50;;
21697;SDS011;11010;49.548;11.926;2022-09-13T01:03:22;8.43;;;2.40;;
21697;SDS011;11010;49.548;11.926;2022-09-13T01:06:03;7.77;;;2.80;;
21697;SDS011;11010;49.548;11.926;2022-09-13T01:08:32;7.20;;;2.70;;
21697;SDS011;11010;49.548;11.926;2022-09-13T01:11:00;9.07;;;2.78;;
21697;SDS011;11010;49.548;11.926;2022-09-13T01:13:30;8.50;;;2.63;;
21697;SDS011;11010;49.548;11.926;2022-09-13T01:15:59;7.53;;;2.47;;
21697;SDS011;11010;49.548;11.926;2022-09-13T01:18:26;7.25;;;2.47;;
21697;SDS011;11010;49.548;11.926;2022-09-13T01:31:32;7.73;;;2.57;;
21697;SDS011;11010;49.548;11.926;2022-09-13T01:44:39;6.73;;;2.37;;
21697;SDS011;11010;49.548;11.926;2022-09-13T01:49:50;8.57;;;2.80;;
21697;SDS011;11010;49.548;11.926;2022-09-13T02:00:26;7.30;;;2.37;;
21697;SDS011;11010;49.548;11.926;2022-09-13T02:03:05;7.20;;;2.40;;
21697;SDS011;11010;49.548;11.926;2022-09-13T02:05:38;7.07;;;2.40;;
21697;SDS011;11010;49.548;11.926;2022-09-13T02:08:09;7.90;;;2.43;;
21697;SDS011;11010;49.548;11.926;2022-09-13T02:10:40;6.70;;;2.40;;
21697;SDS011;11010;49.548;11.926;2022-09-13T02:13:10;8.30;;;2.80;;
21697;SDS011;11010;49.548;11.926;2022-09-13T02:15:44;7.90;;;2.67;;
21697;SDS011;11010;49.548;11.926;2022-09-13T02:18:18;7.53;;;2.73;;
21697;SDS011;11010;49.548;11.926;2022-09-13T02:20:48;8.00;;;2.63;;
21697;SDS011;11010;49.548;11.926;2022-09-13T02:24:04;6.97;;;2.57;;
21697;SDS011;11010;49.548;11.926;2022-09-13T02:26:05;7.23;;;2.60;;
21697;SDS011;11010;49.548;11.926;2022-09-13T02:28:35;7.50;;;2.53;;
21697;SDS011;11010;49.548;11.926;2022-09-13T02:31:03;7.53;;;2.50;;
21697;SDS011;11010;49.548;11.926;2022-09-13T02:33:37;7.63;;;2.90;;
21697;SDS011;11010;49.548;11.926;2022-09-13T02:36:12;8.00;;;2.57;;
21697;SDS011;11010;49.548;11.926;2022-09-13T02:38:45;8.47;;;2.37;;
21697;SDS011;11010;49.548;11.926;2022-09-13T02:43:47;7.17;;;2.43;;
21697;SDS011;11010;49.548;11.926;2022-09-13T02:55:04;9.13;;;2.50;;
21697;SDS011;11010;49.548;11.926;2022-09-13T02:57:26;7.30;;;2.50;;
21697;SDS011;11010;49.548;11.926;2022-09-13T02:59:57;8.10;;;2.67;;
21697;SDS011;11010;49.548;11.926;2022-09-13T03:02:30;8.07;;;2.30;;
21697;SDS011;11010;49.548;11.926;2022-09-13T03:04:59;8.63;;;2.83;;
21697;SDS011;11010;49.548;11.926;2022-09-13T03:07:28;7.00;;;2.43;;
21697;SDS011;11010;49.548;11.926;2022-09-13T03:09:58;9.13;;;2.70;;
21697;SDS011;11010;49.548;11.926;2022-09-13T03:12:48;8.77;;;2.63;;
21697;SDS011;11010;49.548;11.926;2022-09-13T03:21:25;10.00;;;2.53;;
21697;SDS011;11010;49.548;11.926;2022-09-13T03:26:22;8.20;;;2.80;;
21697;SDS011;11010;49.548;11.926;2022-09-13T03:31:31;8.87;;;2.83;;
21697;SDS011;11010;49.548;11.926;2022-09-13T03:34:05;8.73;;;3.07;;
21697;SDS011;11010;49.548;11.926;2022-09-13T03:36:35;8.50;;;2.73;;
21697;SDS011;11010;49.548;11.926;2022-09-13T03:41:33;8.20;;;3.00;;
21697;SDS011;11010;49.548;11.926;2022-09-13T03:44:03;7.40;;;2.67;;
21697;SDS011;11010;49.548;11.926;2022-09-13T03:46:34;7.77;;;3.03;;
21697;SDS011;11010;49.548;11.926;2022-09-13T03:49:05;8.37;;;2.83;;
21697;SDS011;11010;49.548;11.926;2022-09-13T03:51:34;8.80;;;2.40;;
21697;SDS011;11010;49.548;11.926;2022-09-13T03:54:05;8.53;;;2.60;;
21697;SDS011;11010;49.548;11.926;2022-09-13T03:56:34;7.40;;;2.63;;
21697;SDS011;11010;49.548;11.926;2022-09-13T03:59:02;7.60;;;2.50;;
21697;SDS011;11010;49.548;11.926;2022-09-13T04:01:30;8.60;;;2.80;;
21697;SDS011;11010;49.548;11.926;2022-09-13T04:03:59;7.83;;;2.87;;
21697;SDS011;11010;49.548;11.926;2022-09-13T04:06:27;8.00;;;2.83;;
21697;SDS011;11010;49.548;11.926;2022-09-13T04:08:55;7.97;;;2.90;;
21697;SDS011;11010;49.548;11.926;2022-09-13T04:11:25;8.03;;;2.60;;
21697;SDS011;11010;49.548;11.926;2022-09-13T04:13:53;7.87;;;2.87;;
21697;SDS011;11010;49.548;11.926;2022-09-13T04:16:21;9.50;;;2.70;;
21697;SDS011;11010;49.548;11.926;2022-09-13T04:18:49;8.63;;;3.00;;
21697;SDS011;11010;49.548;11.926;2022-09-13T04:21:18;9.30;;;2.80;;
21697;SDS011;11010;49.548;11.926;2022-09-13T04:23:48;10.40;;;2.97;;
21697;SDS011;11010;49.548;11.926;2022-09-13T04:26:16;8.47;;;2.80;;
21697;SDS011;11010;49.548;11.926;2022-09-13T04:28:44;9.60;;;2.97;;
21697;SDS011;11010;49.548;11.926;2022-09-13T04:31:12;8.40;;;2.80;;
21697;SDS011;11010;49.548;11.926;2022-09-13T04:33:40;9.13;;;3.20;;
21697;SDS011;11010;49.548;11.926;2022-09-13T04:36:08;10.00;;;3.50;;
21697;SDS011;11010;49.548;11.926;2022-09-13T04:38:36;9.10;;;3.53;;
21697;SDS011;11010;49.548;11.926;2022-09-13T04:41:04;10.03;;;3.83;;
21697;SDS011;11010;49.548;11.926;2022-09-13T04:43:33;9.70;;;3.47;;
21697;SDS011;11010;49.548;11.926;2022-09-13T04:46:01;9.23;;;3.77;;
21697;SDS011;11010;49.548;11.926;2022-09-13T04:48:29;9.97;;;3.90;;
21697;SDS011;11010;49.548;11.926;2022-09-13T04:51:01;9.33;;;3.57;;
21697;SDS011;11010;49.548;11.926;2022-09-13T04:53:30;9.90;;;3.43;;
21697;SDS011;11010;49.548;11.926;2022-09-13T04:56:04;7.90;;;3.20;;
21697;SDS011;11010;49.548;11.926;2022-09-13T04:58:33;8.70;;;3.30;;
21697;SDS011;11010;49.548;11.926;2022-09-13T05:01:02;9.00;;;3.60;;
21697;SDS011;11010;49.548;11.926;2022-09-13T05:03:31;8.43;;;3.20;;
21697;SDS011;11010;49.548;11.926;2022-09-13T05:06:06;8.87;;;3.27;;
21697;SDS011;11010;49.548;11.926;2022-09-13T05:08:36;7.87;;;2.67;;
21697;SDS011;11010;49.548;11.926;2022-09-13T05:11:05;9.37;;;3.30;;
21697;SDS011;11010;49.548;11.926;2022-09-13T05:13:34;8.20;;;3.00;;
21697;SDS011;11010;49.548;11.926;2022-09-13T05:16:03;9.67;;;3.30;;
21697;SDS011;11010;49.548;11.926;2022-09-13T05:18:33;8.60;;;3.17;;
21697;SDS011;11010;49.548;11.926;2022-09-13T05:21:03;8.80;;;3.77;;
21697;SDS011;11010;49.548;11.926;2022-09-13T05:23:31;8.77;;;3.03;;
21697;SDS011;11010;49.548;11.926;2022-09-13T05:26:01;8.77;;;3.50;;
21697;SDS011;11010;49.548;11.926;2022-09-13T05:28:30;11.60;;;3.77;;
21697;SDS011;11010;49.548;11.926;2022-09-13T05:30:59;9.97;;;3.50;;
21697;SDS011;11010;49.548;11.926;2022-09-13T05:33:32;10.43;;;3.50;;
21697;SDS011;11010;49.548;11.926;2022-09-13T05:36:00;10.17;;;4.40;;
21697;SDS011;11010;49.548;11.926;2022-09-13T05:38:28;8.23;;;3.27;;
21697;SDS011;11010;49.548;11.926;2022-09-13T05:40:57;9.13;;;3.70;;
21697;SDS011;11010;49.548;11.926;2022-09-13T05:43:29;9.90;;;3.17;;
21697;SDS011;11010;49.548;11.926;2022-09-13T05:48:29;8.63;;;3.27;;
21697;SDS011;11010;49.548;11.926;2022-09-13T05:51:02;8.70;;;3.40;;
21697;SDS011;11010;49.548;11.926;2022-09-13T05:53:31;9.33;;;3.50;;
21697;SDS011;11010;49.548;11.926;2022-09-13T05:55:59;7.87;;;2.93;;
21697;SDS011;11010;49.548;11.926;2022-09-13T05:58:27;8.37;;;3.13;;
21697;SDS011;11010;49.548;11.926;2022-09-13T06:00:56;9.00;;;3.30;;
21697;SDS011;11010;49.548;11.926;2022-09-13T06:03:24;9.03;;;3.47;;
21697;SDS011;11010;49.548;11.926;2022-09-13T06:05:55;8.07;;;3.07;;
21697;SDS011;11010;49.548;11.926;2022-09-13T06:08:25;8.97;;;3.67;;
21697;SDS011;11010;49.548;11.926;2022-09-13T06:10:54;9.87;;;3.57;;
21697;SDS011;11010;49.548;11.926;2022-09-13T06:13:23;8.47;;;3.47;;
21697;SDS011;11010;49.548;11.926;2022-09-13T06:15:51;8.53;;;3.40;;
21697;SDS011;11010;49.548;11.926;2022-09-13T06:18:19;9.23;;;3.07;;
21697;SDS011;11010;49.548;11.926;2022-09-13T06:20:48;9.57;;;3.53;;
21697;SDS011;11010;49.548;11.926;2022-09-13T06:23:15;8.50;;;3.27;;
21697;SDS011;11010;49.548;11.926;2022-09-13T06:25:43;9.33;;;3.50;;
21697;SDS011;11010;49.548;11.926;2022-09-13T06:28:12;9.53;;;3.13;;
21697;SDS011;11010;49.548;11.926;2022-09-13T06:30:40;8.93;;;3.70;;
21697;SDS011;11010;49.548;11.926;2022-09-13T06:33:08;9.07;;;3.80;;
21697;SDS011;11010;49.548;11.926;2022-09-13T06:35:36;10.20;;;3.60;;
21697;SDS011;11010;49.548;11.926;2022-09-13T06:38:04;10.77;;;4.67;;
21697;SDS011;11010;49.548;11.926;2022-09-13T06:40:32;8.60;;;3.60;;
21697;SDS011;11010;49.548;11.926;2022-09-13T06:43:00;9.27;;;3.97;;
21697;SDS011;11010;49.548;11.926;2022-09-13T06:45:28;9.57;;;3.70;;
21697;SDS011;11010;49.548;11.926;2022-09-13T06:47:56;10.33;;;4.17;;
21697;SDS011;11010;49.548;11.926;2022-09-13T06:50:25;10.73;;;4.50;;
21697;SDS011;11010;49.548;11.926;2022-09-13T06:52:55;10.23;;;4.33;;
21697;SDS011;11010;49.548;11.926;2022-09-13T06:55:23;10.07;;;4.37;;
21697;SDS011;11010;49.548;11.926;2022-09-13T06:57:51;11.63;;;4.67;;
21697;SDS011;11010;49.548;11.926;2022-09-13T07:00:19;10.37;;;4.47;;
21697;SDS011;11010;49.548;11.926;2022-09-13T07:02:51;10.83;;;4.50;;
21697;SDS011;11010;49.548;11.926;2022-09-13T07:05:19;11.80;;;4.83;;
21697;SDS011;11010;49.548;11.926;2022-09-13T07:07:47;11.37;;;5.00;;
21697;SDS011;11010;49.548;11.926;2022-09-13T07:10:15;9.73;;;4.33;;
21697;SDS011;11010;49.548;11.926;2022-09-13T07:12:43;11.40;;;4.97;;
21697;SDS011;11010;49.548;11.926;2022-09-13T07:15:10;11.27;;;4.87;;
21697;SDS011;11010;49.548;11.926;2022-09-13T07:17:39;10.63;;;4.80;;
21697;SDS011;11010;49.548;11.926;2022-09-13T07:20:07;10.80;;;4.60;;
21697;SDS011;11010;49.548;11.926;2022-09-13T07:22:35;11.50;;;4.80;;
21697;SDS011;11010;49.548;11.926;2022-09-13T07:25:03;12.00;;;5.03;;
21697;SDS011;11010;49.548;11.926;2022-09-13T07:27:31;11.13;;;4.83;;
21697;SDS011;11010;49.548;11.926;2022-09-13T07:29:59;11.33;;;4.53;;
21697;SDS011;11010;49.548;11.926;2022-09-13T07:32:27;12.30;;;5.43;;
21697;SDS011;11010;49.548;11.926;2022-09-13T07:34:55;11.60;;;5.30;;
21697;SDS011;11010;49.548;11.926;2022-09-13T07:37:23;11.23;;;4.97;;
21697;SDS011;11010;49.548;11.926;2022-09-13T07:39:51;10.77;;;4.97;;
21697;SDS011;11010;49.548;11.926;2022-09-13T07:42:20;11.40;;;5.17;;
21697;SDS011;11010;49.548;11.926;2022-09-13T07:44:48;10.47;;;4.97;;
21697;SDS011;11010;49.548;11.926;2022-09-13T07:47:16;10.40;;;5.00;;
21697;SDS011;11010;49.548;11.926;2022-09-13T07:49:44;11.27;;;5.37;;
21697;SDS011;11010;49.548;11.926;2022-09-13T07:52:12;11.13;;;5.30;;
21697;SDS011;11010;49.548;11.926;2022-09-13T07:54:40;10.00;;;4.70;;
21697;SDS011;11010;49.548;11.926;2022-09-13T07:57:08;11.27;;;5.50;;
21697;SDS011;11010;49.548;11.926;2022-09-13T07:59:36;11.77;;;4.90;;
21697;SDS011;11010;49.548;11.926;2022-09-13T08:02:04;10.57;;;4.77;;
21697;SDS011;11010;49.548;11.926;2022-09-13T08:04:33;11.10;;;5.10;;
21697;SDS011;11010;49.548;11.926;2022-09-13T08:07:02;11.43;;;5.30;;
21697;SDS011;11010;49.548;11.926;2022-09-13T08:09:30;11.53;;;5.13;;
21697;SDS011;11010;49.548;11.926;2022-09-13T08:11:58;10.73;;;4.70;;
21697;SDS011;11010;49.548;11.926;2022-09-13T08:14:26;11.97;;;5.47;;
21697;SDS011;11010;49.548;11.926;2022-09-13T08:16:54;11.83;;;4.63;;
21697;SDS011;11010;49.548;11.926;2022-09-13T08:19:22;10.63;;;5.00;;
21697;SDS011;11010;49.548;11.926;2022-09-13T08:21:50;10.93;;;4.97;;
21697;SDS011;11010;49.548;11.926;2022-09-13T08:24:19;11.20;;;4.97;;
21697;SDS011;11010;49.548;11.926;2022-09-13T08:26:47;10.37;;;4.87;;
21697;SDS011;11010;49.548;11.926;2022-09-13T08:29:17;11.97;;;5.27;;
21697;SDS011;11010;49.548;11.926;2022-09-13T08:31:46;10.60;;;5.03;;
21697;SDS011;11010;49.548;11.926;2022-09-13T08:34:14;11.20;;;5.00;;
21697;SDS011;11010;49.548;11.926;2022-09-13T08:36:43;10.83;;;5.10;;
21697;SDS011;11010;49.548;11.926;2022-09-13T08:39:11;10.93;;;5.10;;
21697;SDS011;11010;49.548;11.926;2022-09-13T08:44:20;11.05;;;5.00;;
21697;SDS011;11010;49.548;11.926;2022-09-13T08:46:54;11.50;;;5.13;;
21697;SDS011;11010;49.548;11.926;2022-09-13T08:49:40;10.40;;;4.73;;
21697;SDS011;11010;49.548;11.926;2022-09-13T08:52:20;11.10;;;5.07;;
21697;SDS011;11010;49.548;11.926;2022-09-13T08:54:51;10.53;;;5.00;;
21697;SDS011;11010;49.548;11.926;2022-09-13T08:57:30;11.30;;;5.10;;
21697;SDS011;11010;49.548;11.926;2022-09-13T09:05:18;9.73;;;4.90;;
21697;SDS011;11010;49.548;11.926;2022-09-13T09:07:51;10.50;;;4.95;;
21697;SDS011;11010;49.548;11.926;2022-09-13T09:10:24;10.13;;;4.82;;
21697;SDS011;11010;49.548;11.926;2022-09-13T09:12:58;11.63;;;5.32;;
21697;SDS011;11010;49.548;11.926;2022-09-13T09:15:29;11.25;;;5.32;;
21697;SDS011;11010;49.548;11.926;2022-09-13T09:18:05;10.85;;;4.82;;
21697;SDS011;11010;49.548;11.926;2022-09-13T09:20:41;10.82;;;5.07;;
21697;SDS011;11010;49.548;11.926;2022-09-13T09:23:19;11.27;;;5.10;;
21697;SDS011;11010;49.548;11.926;2022-09-13T09:25:54;10.27;;;4.45;;
21697;SDS011;11010;49.548;11.926;2022-09-13T09:28:23;11.40;;;4.80;;
21697;SDS011;11010;49.548;11.926;2022-09-13T09:31:00;9.93;;;5.10;;
21697;SDS011;11010;49.548;11.926;2022-09-13T09:38:37;11.18;;;4.78;;
21697;SDS011;11010;49.548;11.926;2022-09-13T09:43:57;11.90;;;4.30;;
21697;SDS011;11010;49.548;11.926;2022-09-13T09:46:27;9.50;;;4.38;;
21697;SDS011;11010;49.548;11.926;2022-09-13T09:49:16;9.65;;;4.38;;
21697;SDS011;11010;49.548;11.926;2022-09-13T09:52:04;9.85;;;4.75;;
21697;SDS011;11010;49.548;11.926;2022-09-13T09:54:33;10.38;;;4.82;;
21697;SDS011;11010;49.548;11.926;2022-09-13T09:57:02;10.40;;;4.95;;
21697;SDS011;11010;49.548;11.926;2022-09-13T09:59:33;9.85;;;4.88;;
21697;SDS011;11010;49.548;11.926;2022-09-13T10:02:10;10.20;;;4.50;;
21697;SDS011;11010;49.548;11.926;2022-09-13T10:04:41;10.23;;;4.55;;
21697;SDS011;11010;49.548;11.926;2022-09-13T10:10:18;9.02;;;4.15;;
21697;SDS011;11010;49.548;11.926;2022-09-13T10:12:52;10.85;;;4.43;;
21697;SDS011;11010;49.548;11.926;2022-09-13T10:15:28;11.02;;;4.53;;
21697;SDS011;11010;49.548;11.926;2022-09-13T10:18:13;10.02;;;4.30;;
21697;SDS011;11010;49.548;11.926;2022-09-13T10:23:34;10.65;;;4.70;;
21697;SDS011;11010;49.548;11.926;2022-09-13T10:28:33;11.40;;;4.47;;
21697;SDS011;11010;49.548;11.926;2022-09-13T10:31:05;8.93;;;3.72;;
21697;SDS011;11010;49.548;11.926;2022-09-13T10:36:23;10.57;;;4.20;;
21697;SDS011;11010;49.548;11.926;2022-09-13T10:39:14;9.52;;;4.25;;
21697;SDS011;11010;49.548;11.926;2022-09-13T10:42:02;10.52;;;3.95;;
21697;SDS011;11010;49.548;11.926;2022-09-13T10:47:01;8.77;;;3.88;;
21697;SDS011;11010;49.548;11.926;2022-09-13T10:49:34;9.43;;;3.85;;
21697;SDS011;11010;49.548;11.926;2022-09-13T10:54:50;9.20;;;3.80;;
21697;SDS011;11010;49.548;11.926;2022-09-13T10:57:30;8.85;;;3.88;;
21697;SDS011;11010;49.548;11.926;2022-09-13T11:00:01;9.70;;;4.10;;
21697;SDS011;11010;49.548;11.926;2022-09-13T11:02:36;9.07;;;3.83;;
21697;SDS011;11010;49.548;11.926;2022-09-13T11:10:36;9.07;;;3.72;;
21697;SDS011;11010;49.548;11.926;2022-09-13T11:13:11;12.13;;;4.00;;
21697;SDS011;11010;49.548;11.926;2022-09-13T11:18:21;9.63;;;3.88;;
21697;SDS011;11010;49.548;11.926;2022-09-13T11:20:54;12.88;;;4.53;;
21697;SDS011;11010;49.548;11.926;2022-09-13T11:23:29;9.85;;;4.10;;
21697;SDS011;11010;49.548;11.926;2022-09-13T11:26:08;9.55;;;4.10;;
21697;SDS011;11010;49.548;11.926;2022-09-13T11:28:47;9.90;;;3.90;;
21697;SDS011;11010;49.548;11.926;2022-09-13T11:54:41;10.80;;;3.75;;
21697;SDS011;11010;49.548;11.926;2022-09-13T11:57:15;8.95;;;3.17;;
21697;SDS011;11010;49.548;11.926;2022-09-13T11:59:49;8.40;;;3.28;;
21697;SDS011;11010;49.548;11.926;2022-09-13T12:02:23;10.27;;;3.70;;
21697;SDS011;11010;49.548;11.926;2022-09-13T12:07:42;9.15;;;3.30;;
21697;SDS011;11010;49.548;11.926;2022-09-13T12:12:51;8.52;;;3.47;;
21697;SDS011;11010;49.548;11.926;2022-09-13T12:15:39;8.15;;;3.05;;
21697;SDS011;11010;49.548;11.926;2022-09-13T12:18:10;8.32;;;3.28;;
21697;SDS011;11010;49.548;11.926;2022-09-13T12:20:46;9.10;;;3.22;;
21697;SDS011;11010;49.548;11.926;2022-09-13T12:23:15;8.00;;;3.10;;
21697;SDS011;11010;49.548;11.926;2022-09-13T12:25:54;7.57;;;3.15;;
21697;SDS011;11010;49.548;11.926;2022-09-13T12:28:28;8.27;;;3.55;;
21697;SDS011;11010;49.548;11.926;2022-09-13T12:31:06;8.52;;;3.20;;
21697;SDS011;11010;49.548;11.926;2022-09-13T12:33:39;9.35;;;3.50;;
21697;SDS011;11010;49.548;11.926;2022-09-13T12:38:44;8.70;;;3.28;;
21697;SDS011;11010;49.548;11.926;2022-09-13T13:00:27;8.82;;;3.45;;
21697;SDS011;11010;49.548;11.926;2022-09-13T13:03:11;7.88;;;3.05;;
21697;SDS011;11010;49.548;11.926;2022-09-13T13:05:48;7.70;;;2.90;;
21697;SDS011;11010;49.548;11.926;2022-09-13T13:11:07;8.05;;;3.22;;
21697;SDS011;11010;49.548;11.926;2022-09-13T13:13:37;8.30;;;3.08;;
21697;SDS011;11010;49.548;11.926;2022-09-13T13:19:30;7.35;;;2.65;;
21697;SDS011;11010;49.548;11.926;2022-09-13T13:24:46;8.02;;;2.83;;
21697;SDS011;11010;49.548;11.926;2022-09-13T13:27:35;7.50;;;2.72;;
21697;SDS011;11010;49.548;11.926;2022-09-13T13:33:41;8.98;;;2.60;;
21697;SDS011;11010;49.548;11.926;2022-09-13T13:35:52;7.93;;;2.78;;
21697;SDS011;11010;49.548;11.926;2022-09-13T13:41:04;7.68;;;2.40;;
21697;SDS011;11010;49.548;11.926;2022-09-13T13:43:38;8.20;;;2.63;;
21697;SDS011;11010;49.548;11.926;2022-09-13T13:48:38;7.82;;;2.45;;
21697;SDS011;11010;49.548;11.926;2022-09-13T13:53:38;8.88;;;2.80;;
21697;SDS011;11010;49.548;11.926;2022-09-13T13:56:25;9.45;;;2.50;;
21697;SDS011;11010;49.548;11.926;2022-09-13T13:58:57;9.88;;;2.70;;
21697;SDS011;11010;49.548;11.926;2022-09-13T14:01:29;8.32;;;2.60;;
21697;SDS011;11010;49.548;11.926;2022-09-13T14:04:04;6.93;;;2.58;;
21697;SDS011;11010;49.548;11.926;2022-09-13T14:09:26;7.68;;;2.50;;
21697;SDS011;11010;49.548;11.926;2022-09-13T14:12:09;7.38;;;2.50;;
21697;SDS011;11010;49.548;11.926;2022-09-13T14:19:52;7.22;;;2.28;;
21697;SDS011;11010;49.548;11.926;2022-09-13T14:24:52;7.95;;;2.63;;
21697;SDS011;11010;49.548;11.926;2022-09-13T14:27:33;7.18;;;2.65;;
21697;SDS011;11010;49.548;11.926;2022-09-13T14:30:04;8.15;;;2.80;;
21697;SDS011;11010;49.548;11.926;2022-09-13T14:32:44;7.05;;;2.25;;
21697;SDS011;11010;49.548;11.926;2022-09-13T14:35:32;7.72;;;2.42;;
21697;SDS011;11010;49.548;11.926;2022-09-13T14:40:48;7.68;;;2.20;;
21697;SDS011;11010;49.548;11.926;2022-09-13T14:43:26;6.63;;;2.05;;
21697;SDS011;11010;49.548;11.926;2022-09-13T14:45:58;7.13;;;2.22;;
21697;SDS011;11010;49.548;11.926;2022-09-13T14:48:28;6.40;;;2.22;;
21697;SDS011;11010;49.548;11.926;2022-09-13T14:51:02;6.57;;;2.10;;
21697;SDS011;11010;49.548;11.926;2022-09-13T14:53:32;7.30;;;2.13;;
21697;SDS011;11010;49.548;11.926;2022-09-13T14:56:04;7.32;;;2.05;;
21697;SDS011;11010;49.548;11.926;2022-09-13T14:58:51;6.63;;;2.05;;
21697;SDS011;11010;49.548;11.926;2022-09-13T15:01:25;7.00;;;2.05;;
21697;SDS011;11010;49.548;11.926;2022-09-13T15:03:55;6.75;;;2.20;;
21697;SDS011;11010;49.548;11.926;2022-09-13T15:06:25;6.85;;;2.00;;
21697;SDS011;11010;49.548;11.926;2022-09-13T15:08:59;6.25;;;1.80;;
21697;SDS011;11010;49.548;11.926;2022-09-13T15:11:32;6.00;;;1.80;;
21697;SDS011;11010;49.548;11.926;2022-09-13T15:14:01;6.78;;;1.90;;
21697;SDS011;11010;49.548;11.926;2022-09-13T15:16:30;6.72;;;1.90;;
21697;SDS011;11010;49.548;11.926;2022-09-13T15:21:46;6.40;;;2.05;;
21697;SDS011;11010;49.548;11.926;2022-09-13T15:24:21;6.95;;;1.92;;
21697;SDS011;11010;49.548;11.926;2022-09-13T15:27:05;6.05;;;1.77;;
21697;SDS011;11010;49.548;11.926;2022-09-13T15:29:33;6.15;;;2.00;;
21697;SDS011;11010;49.548;11.926;2022-09-13T15:32:03;6.57;;;1.95;;
21697;SDS011;11010;49.548;11.926;2022-09-13T15:34:33;8.15;;;2.03;;
21697;SDS011;11010;49.548;11.926;2022-09-13T15:37:12;8.35;;;2.15;;
21697;SDS011;11010;49.548;11.926;2022-09-13T15:39:47;7.15;;;2.00;;
21697;SDS011;11010;49.548;11.926;2022-09-13T15:42:16;6.40;;;2.10;;
21697;SDS011;11010;49.548;11.926;2022-09-13T15:44:44;6.85;;;2.10;;
21697;SDS011;11010;49.548;11.926;2022-09-13T15:47:14;6.55;;;2.13;;
21697;SDS011;11010;49.548;11.926;2022-09-13T15:49:49;6.50;;;2.08;;
21697;SDS011;11010;49.548;11.926;2022-09-13T15:52:18;6.50;;;2.00;;
21697;SDS011;11010;49.548;11.926;2022-09-13T15:54:48;5.85;;;1.90;;
21697;SDS011;11010;49.548;11.926;2022-09-13T15:57:20;7.57;;;2.10;;
21697;SDS011;11010;49.548;11.926;2022-09-13T15:59:50;7.55;;;2.13;;
21697;SDS011;11010;49.548;11.926;2022-09-13T16:04:47;6.15;;;2.10;;
21697;SDS011;11010;49.548;11.926;2022-09-13T16:07:15;6.97;;;2.20;;
21697;SDS011;11010;49.548;11.926;2022-09-13T16:09:43;7.03;;;2.20;;
21697;SDS011;11010;49.548;11.926;2022-09-13T16:12:12;6.53;;;2.20;;
21697;SDS011;11010;49.548;11.926;2022-09-13T16:14:40;7.00;;;2.10;;
21697;SDS011;11010;49.548;11.926;2022-09-13T16:17:14;8.25;;;2.28;;
21697;SDS011;11010;49.548;11.926;2022-09-13T16:19:43;7.38;;;2.70;;
21697;SDS011;11010;49.548;11.926;2022-09-13T16:22:11;9.40;;;2.40;;
21697;SDS011;11010;49.548;11.926;2022-09-13T16:24:39;6.88;;;2.30;;
21697;SDS011;11010;49.548;11.926;2022-09-13T16:27:08;9.07;;;2.50;;
21697;SDS011;11010;49.548;11.926;2022-09-13T16:29:36;7.82;;;2.20;;
21697;SDS011;11010;49.548;11.926;2022-09-13T16:32:04;7.15;;;2.38;;
21697;SDS011;11010;49.548;11.926;2022-09-13T16:34:32;9.55;;;2.60;;
21697;SDS011;11010;49.548;11.926;2022-09-13T16:37:00;7.43;;;2.30;;
21697;SDS011;11010;49.548;11.926;2022-09-13T16:39:28;7.18;;;2.55;;
21697;SDS011;11010;49.548;11.926;2022-09-13T16:41:56;7.35;;;2.40;;
21697;SDS011;11010;49.548;11.926;2022-09-13T16:44:24;7.53;;;2.40;;
21697;SDS011;11010;49.548;11.926;2022-09-13T16:46:52;6.60;;;2.17;;
21697;SDS011;11010;49.548;11.926;2022-09-13T16:49:21;7.40;;;2.22;;
21697;SDS011;11010;49.548;11.926;2022-09-13T16:51:49;7.68;;;2.55;;
21697;SDS011;11010;49.548;11.926;2022-09-13T16:54:17;6.70;;;2.15;;
21697;SDS011;11010;49.548;11.926;2022-09-13T16:56:45;6.10;;;1.90;;
21697;SDS011;11010;49.548;11.926;2022-09-13T16:59:13;8.05;;;2.50;;
21697;SDS011;11010;49.548;11.926;2022-09-13T17:01:41;6.50;;;2.10;;
21697;SDS011;11010;49.548;11.926;2022-09-13T17:04:09;7.50;;;2.30;;
21697;SDS011;11010;49.548;11.926;2022-09-13T17:06:37;6.85;;;2.30;;
21697;SDS011;11010;49.548;11.926;2022-09-13T17:09:06;9.35;;;2.40;;
21697;SDS011;11010;49.548;11.926;2022-09-13T17:11:35;7.15;;;2.15;;
21697;SDS011;11010;49.548;11.926;2022-09-13T17:14:04;7.13;;;2.05;;
21697;SDS011;11010;49.548;11.926;2022-09-13T17:19:02;6.95;;;2.22;;
21697;SDS011;11010;49.548;11.926;2022-09-13T17:21:31;7.40;;;2.15;;
21697;SDS011;11010;49.548;11.926;2022-09-13T17:24:00;6.82;;;2.20;;
21697;SDS011;11010;49.548;11.926;2022-09-13T17:26:28;6.80;;;2.40;;
21697;SDS011;11010;49.548;11.926;2022-09-13T17:28:56;8.82;;;2.47;;
21697;SDS011;11010;49.548;11.926;2022-09-13T17:31:25;8.52;;;2.38;;
21697;SDS011;11010;49.548;11.926;2022-09-13T17:33:53;7.18;;;2.30;;
21697;SDS011;11010;49.548;11.926;2022-09-13T17:36:21;6.72;;;2.30;;
21697;SDS011;11010;49.548;11.926;2022-09-13T17:38:53;7.78;;;2.40;;
21697;SDS011;11010;49.548;11.926;2022-09-13T17:41:22;7.82;;;2.58;;
21697;SDS011;11010;49.548;11.926;2022-09-13T17:43:51;6.32;;;2.22;;
21697;SDS011;11010;49.548;11.926;2022-09-13T17:46:20;7.55;;;2.17;;
21697;SDS011;11010;49.548;11.926;2022-09-13T17:48:49;7.75;;;2.63;;
21697;SDS011;11010;49.548;11.926;2022-09-13T17:51:19;7.38;;;2.42;;
21697;SDS011;11010;49.548;11.926;2022-09-13T17:53:48;8.63;;;2.47;;
21697;SDS011;11010;49.548;11.926;2022-09-13T17:56:17;6.70;;;2.20;;
21697;SDS011;11010;49.548;11.926;2022-09-13T17:58:46;7.90;;;2.17;;
21697;SDS011;11010;49.548;11.926;2022-09-13T18:01:14;7.20;;;2.30;;
21697;SDS011;11010;49.548;11.926;2022-09-13T18:03:42;7.53;;;2.42;;
21697;SDS011;11010;49.548;11.926;2022-09-13T18:06:11;7.13;;;2.30;;